Aviation Digital Data Service (ADDS)

Output produced by METARs form (1518 UTC 20 November 2018)
found at http://www.aviationweather.gov/metar/data/
 
METAR text: KOAK 201453Z 00000KT 3SM HZ FU FEW019 06/01 A3001 RMK AO2 TWR VIS 4 SLP159 FU FEW019 T00610011 51006
Conditions at: KOAK (OAKLAND , CA, US) observed 1453 UTC 20 November 2018
Temperature: 6.1°C (43°F)
Dewpoint: 1.1°C (34°F) [RH = 70%]
Pressure (altimeter): 30.01 inches Hg (1016.3 mb)
[Sea-level pressure: 1015.9 mb]
Winds: calm
Visibility: 3 miles ( 5 km)
Ceiling: at least 12,000 feet AGL
Clouds: few clouds at 1900 feet AGL
Weather: HZ FU  (haze, smoke)

METAR text: KOAK 201353Z 07004KT 4SM HZ FU FEW019 06/03 A3000 RMK AO2 SLP157 FU FEW019 T00610028
Conditions at: KOAK (OAKLAND , CA, US) observed 1353 UTC 20 November 2018
Temperature: 6.1°C (43°F)
Dewpoint: 2.8°C (37°F) [RH = 79%]
Pressure (altimeter): 30.00 inches Hg (1016.0 mb)
[Sea-level pressure: 1015.7 mb]
Winds: from the ENE (70 degrees) at 5 MPH (4 knots; 2.1 m/s)
Visibility: 4 miles ( 6 km)
Ceiling: at least 12,000 feet AGL
Clouds: few clouds at 1900 feet AGL
Weather: HZ FU  (haze, smoke)

METAR text: KOAK 201253Z 35004KT 4SM HZ FU FEW018 08/02 A3000 RMK AO2 SLP159 FU FEW018 T00780022
Conditions at: KOAK (OAKLAND , CA, US) observed 1253 UTC 20 November 2018
Temperature: 7.8°C (46°F)
Dewpoint: 2.2°C (36°F) [RH = 68%]
Pressure (altimeter): 30.00 inches Hg (1016.0 mb)
[Sea-level pressure: 1015.9 mb]
Winds: from the N (350 degrees) at 5 MPH (4 knots; 2.1 m/s)
Visibility: 4 miles ( 6 km)
Ceiling: at least 12,000 feet AGL
Clouds: few clouds at 1800 feet AGL
Weather: HZ FU  (haze, smoke)

METAR text: KOAK 201153Z 11003KT 4SM HZ FU FEW018 06/02 A2999 RMK AO2 SLP153 FU FEW018 T00610017 10111 20039 58010
Conditions at: KOAK (OAKLAND , CA, US) observed 1153 UTC 20 November 2018
Temperature: 6.1°C (43°F)
Dewpoint: 1.7°C (35°F) [RH = 73%]
Pressure (altimeter): 29.99 inches Hg (1015.7 mb)
[Sea-level pressure: 1015.3 mb]
Winds: from the ESE (110 degrees) at 3 MPH (3 knots; 1.5 m/s)
Visibility: 4 miles ( 6 km)
Ceiling: at least 12,000 feet AGL
Clouds: few clouds at 1800 feet AGL
Weather: HZ FU  (haze, smoke)

METAR text: KOAK 201053Z 00000KT 4SM HZ FU FEW018 06/01 A3000 RMK AO2 SLP158 FU FEW018 T00560011
Conditions at: KOAK (OAKLAND , CA, US) observed 1053 UTC 20 November 2018
Temperature: 5.6°C (42°F)
Dewpoint: 1.1°C (34°F) [RH = 73%]
Pressure (altimeter): 30.00 inches Hg (1016.0 mb)
[Sea-level pressure: 1015.8 mb]
Winds: calm
Visibility: 4 miles ( 6 km)
Ceiling: at least 12,000 feet AGL
Clouds: few clouds at 1800 feet AGL
Weather: HZ FU  (haze, smoke)

METAR text: KOAK 200953Z 14004KT 4SM HZ FU FEW018 08/02 A3001 RMK AO2 SLP160 FU FEW018 T00780022
Conditions at: KOAK (OAKLAND , CA, US) observed 0953 UTC 20 November 2018
Temperature: 7.8°C (46°F)
Dewpoint: 2.2°C (36°F) [RH = 68%]
Pressure (altimeter): 30.01 inches Hg (1016.3 mb)
[Sea-level pressure: 1016.0 mb]
Winds: from the SE (140 degrees) at 5 MPH (4 knots; 2.1 m/s)
Visibility: 4 miles ( 6 km)
Ceiling: at least 12,000 feet AGL
Clouds: few clouds at 1800 feet AGL
Weather: HZ FU  (haze, smoke)

METAR text: KOAK 200853Z 07004KT 4SM HZ FU SCT014 07/02 A3002 RMK AO2 SLP163 FU SCT014 T00720022 50001
Conditions at: KOAK (OAKLAND , CA, US) observed 0853 UTC 20 November 2018
Temperature: 7.2°C (45°F)
Dewpoint: 2.2°C (36°F) [RH = 70%]
Pressure (altimeter): 30.02 inches Hg (1016.7 mb)
[Sea-level pressure: 1016.3 mb]
Winds: from the ENE (70 degrees) at 5 MPH (4 knots; 2.1 m/s)
Visibility: 4 miles ( 6 km)
Ceiling: at least 12,000 feet AGL
Clouds: scattered clouds at 1400 feet AGL
Weather: HZ FU  (haze, smoke)

METAR text: KOAK 200851Z 07004KT 4SM HZ FU SCT014 07/03 A3002 RMK AO2 FU SCT014
Conditions at: KOAK (OAKLAND , CA, US) observed 0851 UTC 20 November 2018
Temperature: 7.0°C (45°F)
Dewpoint: 3.0°C (37°F) [RH = 76%]
Pressure (altimeter): 30.02 inches Hg (1016.7 mb)
Winds: from the ENE (70 degrees) at 5 MPH (4 knots; 2.1 m/s)
Visibility: 4 miles ( 6 km)
Ceiling: at least 12,000 feet AGL
Clouds: scattered clouds at 1400 feet AGL
Weather: HZ FU  (haze, smoke)

METAR text: KOAK 200753Z 06003KT 3SM HZ FU BKN014 08/02 A3002 RMK AO2 SLP166 FU BKN014 T00830017 401670028
Conditions at: KOAK (OAKLAND , CA, US) observed 0753 UTC 20 November 2018
Temperature: 8.3°C (47°F)
Dewpoint: 1.7°C (35°F) [RH = 63%]
Pressure (altimeter): 30.02 inches Hg (1016.7 mb)
[Sea-level pressure: 1016.6 mb]
Winds: from the ENE (60 degrees) at 3 MPH (3 knots; 1.5 m/s)
Visibility: 3 miles ( 5 km)
Ceiling: 1400 feet AGL
Clouds: broken clouds at 1400 feet AGL
Weather: HZ FU  (haze, smoke)

Forecast for: KOAK (OAKLAND , CA, US)
Text: KOAK 201139Z 2012/2118 09003KT 4SM HZ FU FEW018 FEW200
Forecast period: 1200 to 1700 UTC 20 November 2018
Forecast type: FROM: standard forecast or significant change
Winds: from the E (90 degrees) at 3 MPH (3 knots; 1.5 m/s)
Visibility: 4 miles (6 km)
Ceiling: at least 12,000 feet AGL
Clouds: few clouds at 1800 feet AGL
few clouds at 20000 feet AGL
Weather: HZ FU  (haze, smoke)
Text: FM201700 VRB03KT 4SM FU HZ FEW015 FEW200
Forecast period: 1700 to 2200 UTC 20 November 2018
Forecast type: FROM: standard forecast or significant change
Winds: variable direction winds at 3 MPH (3 knots; 1.5 m/s)
Visibility: 4 miles (6 km)
Ceiling: at least 12,000 feet AGL
Clouds: few clouds at 1500 feet AGL
few clouds at 20000 feet AGL
Weather: FU HZ  (smoke, haze)
Text: FM202200 22007KT 4SM FU HZ FEW015 SCT200
Forecast period: 2200 UTC 20 November 2018 to 0600 UTC 21 November 2018
Forecast type: FROM: standard forecast or significant change
Winds: from the SW (220 degrees) at 8 MPH (7 knots; 3.6 m/s)
Visibility: 4 miles (6 km)
Ceiling: at least 12,000 feet AGL
Clouds: few clouds at 1500 feet AGL
scattered clouds at 20000 feet AGL
Weather: FU HZ  (smoke, haze)
Text: FM210600 12010KT 6SM FU HZ BKN050 OVC200
Forecast period: 0600 to 0900 UTC 21 November 2018
Forecast type: FROM: standard forecast or significant change
Winds: from the ESE (120 degrees) at 12 MPH (10 knots; 5.1 m/s)
Visibility: 6 miles (10 km)
Ceiling: 5000 feet AGL
Clouds: broken clouds at 5000 feet AGL
overcast cloud deck at 20000 feet AGL
Weather: FU HZ  (smoke, haze)
Text: FM210900 14012KT P6SM BKN030 OVC050
Forecast period: 0900 to 1200 UTC 21 November 2018
Forecast type: FROM: standard forecast or significant change
Winds: from the SE (140 degrees) at 14 MPH (12 knots; 6.2 m/s)
Visibility: 6 or more miles 10+ km)
Ceiling: 3000 feet AGL
Clouds: broken clouds at 3000 feet AGL
overcast cloud deck at 5000 feet AGL
Weather: no significant weather forecast for this period
Text: PROB30 2109/2112 P6SM -RA
Forecast period: 0900 to 1200 UTC 21 November 2018
Forecast type: PROBABLE: 30 percent likelihood of the following during this time
Visibility: 6 or more miles 10+ km)
Ceiling: unknown
Clouds: missing
Weather: -RA  (light rain)
Text: FM211200 14012KT P6SM SHRA BKN030 OVC050
Forecast period: 1200 to 1600 UTC 21 November 2018
Forecast type: FROM: standard forecast or significant change
Winds: from the SE (140 degrees) at 14 MPH (12 knots; 6.2 m/s)
Visibility: 6 or more miles 10+ km)
Ceiling: 3000 feet AGL
Clouds: broken clouds at 3000 feet AGL
overcast cloud deck at 5000 feet AGL
Weather: SHRA  (rain showers)
Text: TEMPO 2112/2116 P6SM -RA
Forecast period: 1200 to 1600 UTC 21 November 2018
Forecast type: TEMPORARY: The following changes expected for less than half the time period
Visibility: 6 or more miles 10+ km)
Ceiling: unknown
Clouds: missing
Weather: -RA  (light rain)
Text: FM211600 14015KT 4SM -RA BR BKN030 OVC050
Forecast period: 1600 to 1800 UTC 21 November 2018
Forecast type: FROM: standard forecast or significant change
Winds: from the SE (140 degrees) at 17 MPH (15 knots; 7.7 m/s)
Visibility: 4 miles (6 km)
Ceiling: 3000 feet AGL
Clouds: broken clouds at 3000 feet AGL
overcast cloud deck at 5000 feet AGL
Weather: -RA BR  (light rain, mist)